Time;durP1;ratioP1;P1;durP2;ratioP2;P2;SDS_P1;SDS_P2;PMS_P1;PMS_P2;Temp;Humidity;BMP_temperature;BMP_pressure;BME280_temperature;BME280_humidity;BME280_pressure;Samples;Min_cycle;Max_cycle;Signal;HPM_P1;HPM_P2
2023/10/14 00:01:04;;;;;;;8.75;3.53;;;;;;;;;;5072189;28;20227;-66
2023/10/14 00:03:32;;;;;;;8.02;3.58;;;;;;;;;;5072709;28;20206;-67
2023/10/14 00:06:05;;;;;;;10.52;3.47;;;;;;;;;;5071313;28;20195;-67
2023/10/14 00:08:33;;;;;;;7.72;3.15;;;;;;;;;;5073127;28;20203;-67
2023/10/14 00:11:05;;;;;;;10.02;3.70;;;;;;;;;;5071792;28;20285;-67
2023/10/14 00:13:40;;;;;;;6.70;3.28;;;;;;;;;;5076481;28;20243;-67
2023/10/14 00:16:13;;;;;;;8.90;3.38;;;;;;;;;;5071956;28;20247;-67
2023/10/14 00:18:47;;;;;;;7.90;2.97;;;;;;;;;;5071683;28;20290;-66
2023/10/14 00:21:14;;;;;;;5.90;3.10;;;;;;;;;;5067321;28;20229;-66
2023/10/14 00:23:41;;;;;;;12.15;2.90;;;;;;;;;;5074470;28;20202;-66
2023/10/14 00:26:14;;;;;;;7.40;3.03;;;;;;;;;;5070899;28;20211;-66
2023/10/14 00:28:42;;;;;;;9.02;3.55;;;;;;;;;;5070915;28;20222;-67
2023/10/14 00:31:10;;;;;;;11.65;3.40;;;;;;;;;;5069232;28;20213;-66
2023/10/14 00:33:39;;;;;;;8.73;3.05;;;;;;;;;;5073995;28;20251;-68
2023/10/14 00:36:10;;;;;;;6.82;2.90;;;;;;;;;;5072936;28;20213;-66
2023/10/14 00:38:38;;;;;;;6.50;3.10;;;;;;;;;;5067324;28;20199;-67
2023/10/14 00:41:08;;;;;;;5.72;2.85;;;;;;;;;;5069564;28;20237;-67
2023/10/14 00:43:35;;;;;;;10.10;3.45;;;;;;;;;;5072918;28;20202;-67
2023/10/14 00:46:07;;;;;;;11.00;3.03;;;;;;;;;;5066515;28;20195;-66
2023/10/14 00:48:40;;;;;;;7.25;2.33;;;;;;;;;;5069568;28;20199;-67
2023/10/14 00:51:10;;;;;;;4.63;2.60;;;;;;;;;;5069071;28;20538;-66
2023/10/14 00:53:39;;;;;;;10.07;3.13;;;;;;;;;;5078005;28;20282;-66
2023/10/14 00:56:10;;;;;;;9.38;2.85;;;;;;;;;;5074920;28;20198;-66
2023/10/14 00:58:41;;;;;;;6.35;2.40;;;;;;;;;;5071855;28;20241;-66
2023/10/14 01:01:08;;;;;;;6.22;2.45;;;;;;;;;;5075362;28;20267;-67
2023/10/14 01:03:36;;;;;;;6.07;2.45;;;;;;;;;;5071764;28;20211;-66
2023/10/14 01:06:17;;;;;;;7.40;2.00;;;;;;;;;;5072015;28;20217;-66
2023/10/14 01:08:46;;;;;;;5.60;2.35;;;;;;;;;;5071467;28;20199;-66
2023/10/14 01:11:16;;;;;;;3.40;1.85;;;;;;;;;;5073730;28;20206;-67
2023/10/14 01:13:44;;;;;;;10.27;2.17;;;;;;;;;;5076288;28;20202;-67
2023/10/14 01:16:12;;;;;;;8.13;2.50;;;;;;;;;;5070937;28;20220;-67
2023/10/14 01:18:41;;;;;;;3.28;1.95;;;;;;;;;;5073763;28;20198;-66
2023/10/14 01:21:08;;;;;;;6.15;2.13;;;;;;;;;;5073275;28;20280;-67
2023/10/14 01:23:40;;;;;;;4.72;1.80;;;;;;;;;;5071957;28;20206;-67
2023/10/14 01:26:10;;;;;;;6.05;1.80;;;;;;;;;;5074864;28;20272;-67
2023/10/14 01:28:46;;;;;;;5.00;2.33;;;;;;;;;;5070387;28;20264;-66
2023/10/14 01:31:31;;;;;;;6.47;1.88;;;;;;;;;;5072964;28;20304;-68
2023/10/14 01:33:58;;;;;;;5.75;1.65;;;;;;;;;;5069378;28;20230;-67
2023/10/14 01:36:27;;;;;;;4.78;2.20;;;;;;;;;;5070213;28;20207;-67
2023/10/14 01:38:59;;;;;;;4.10;1.92;;;;;;;;;;5068964;28;20214;-66
2023/10/14 01:41:29;;;;;;;5.22;1.73;;;;;;;;;;5073662;28;20321;-66
2023/10/14 01:43:59;;;;;;;3.08;1.42;;;;;;;;;;5069243;28;20226;-66
2023/10/14 01:46:27;;;;;;;3.92;1.67;;;;;;;;;;5072582;28;20203;-66
2023/10/14 01:48:55;;;;;;;3.95;1.40;;;;;;;;;;5075872;28;20203;-66
2023/10/14 01:51:25;;;;;;;3.97;1.50;;;;;;;;;;5069272;28;20199;-67
2023/10/14 01:53:52;;;;;;;4.10;1.30;;;;;;;;;;5069202;28;20256;-66
2023/10/14 01:56:20;;;;;;;3.70;1.30;;;;;;;;;;5074382;28;20216;-68
2023/10/14 01:58:57;;;;;;;3.22;1.38;;;;;;;;;;5073435;28;20210;-68
2023/10/14 02:01:24;;;;;;;6.85;1.40;;;;;;;;;;5070373;28;20276;-66
2023/10/14 02:03:51;;;;;;;2.08;1.15;;;;;;;;;;5068966;28;20290;-66
2023/10/14 02:06:20;;;;;;;2.28;1.10;;;;;;;;;;5076102;28;20205;-66
2023/10/14 02:08:47;;;;;;;3.22;1.05;;;;;;;;;;5074025;28;20260;-66
2023/10/14 02:11:16;;;;;;;5.18;1.10;;;;;;;;;;5074823;28;20198;-66
2023/10/14 02:13:44;;;;;;;3.28;1.10;;;;;;;;;;5071274;28;20248;-67
2023/10/14 02:16:11;;;;;;;3.42;1.05;;;;;;;;;;5070361;28;20235;-66
2023/10/14 02:18:38;;;;;;;2.78;0.80;;;;;;;;;;5074117;28;20194;-67
2023/10/14 02:21:06;;;;;;;6.28;1.05;;;;;;;;;;5073144;28;20209;-66
2023/10/14 02:23:43;;;;;;;3.75;1.05;;;;;;;;;;5070861;28;20194;-66
2023/10/14 02:26:11;;;;;;;3.83;1.02;;;;;;;;;;5074717;28;20233;-67
2023/10/14 02:28:40;;;;;;;2.38;1.10;;;;;;;;;;5068011;28;20202;-66
2023/10/14 02:31:17;;;;;;;2.63;1.00;;;;;;;;;;5070154;28;20214;-66
2023/10/14 02:33:45;;;;;;;2.17;0.90;;;;;;;;;;5070155;28;20235;-67
2023/10/14 02:36:15;;;;;;;4.20;1.30;;;;;;;;;;5078016;28;20255;-66
2023/10/14 02:38:44;;;;;;;4.10;1.00;;;;;;;;;;5071552;28;20199;-67
2023/10/14 02:41:15;;;;;;;6.20;0.98;;;;;;;;;;5075399;28;20199;-66
2023/10/14 02:43:43;;;;;;;8.23;1.25;;;;;;;;;;5077958;28;20203;-66
2023/10/14 02:46:17;;;;;;;2.33;1.00;;;;;;;;;;5073178;28;20213;-66
2023/10/14 02:48:53;;;;;;;2.90;1.17;;;;;;;;;;5062693;28;20211;-66
2023/10/14 02:51:29;;;;;;;3.25;0.93;;;;;;;;;;5076387;28;20251;-66
2023/10/14 02:54:04;;;;;;;3.85;1.10;;;;;;;;;;5069578;28;20202;-67
2023/10/14 02:56:45;;;;;;;2.00;0.80;;;;;;;;;;5078653;28;20289;-66
2023/10/14 02:59:15;;;;;;;3.33;0.90;;;;;;;;;;5064706;28;20198;-66
2023/10/14 03:01:50;;;;;;;4.90;1.20;;;;;;;;;;5078272;28;20207;-67
2023/10/14 03:04:19;;;;;;;2.63;1.00;;;;;;;;;;5073462;28;20233;-68
2023/10/14 03:06:53;;;;;;;1.83;0.88;;;;;;;;;;5074174;28;20198;-66
2023/10/14 03:09:32;;;;;;;4.45;0.98;;;;;;;;;;5064092;28;20210;-67
2023/10/14 03:11:59;;;;;;;1.95;0.85;;;;;;;;;;5070324;28;20195;-66
2023/10/14 03:14:26;;;;;;;5.28;1.10;;;;;;;;;;5073803;28;20199;-66
2023/10/14 03:16:55;;;;;;;2.15;1.10;;;;;;;;;;5073304;28;20202;-66
2023/10/14 03:19:24;;;;;;;2.63;1.30;;;;;;;;;;5066640;28;20205;-62
2023/10/14 03:21:58;;;;;;;6.28;1.30;;;;;;;;;;5071994;28;20268;-62
2023/10/14 03:24:27;;;;;;;2.72;1.00;;;;;;;;;;5072379;28;20214;-63
2023/10/14 03:27:01;;;;;;;3.63;1.05;;;;;;;;;;5073621;28;20206;-63
2023/10/14 03:29:28;;;;;;;3.75;1.20;;;;;;;;;;5066185;28;20297;-62
2023/10/14 03:31:57;;;;;;;2.95;0.98;;;;;;;;;;5074404;28;20190;-61
2023/10/14 03:34:30;;;;;;;3.30;0.88;;;;;;;;;;5054858;28;20271;-65
2023/10/14 03:37:00;;;;;;;4.75;1.05;;;;;;;;;;5055242;28;20204;-63
2023/10/14 03:39:41;;;;;;;1.08;0.75;;;;;;;;;;5047076;28;20349;-64
2023/10/14 03:42:13;;;;;;;4.03;1.00;;;;;;;;;;5054297;28;20254;-63
2023/10/14 03:44:42;;;;;;;2.50;1.10;;;;;;;;;;5051350;28;20210;-62
2023/10/14 03:47:16;;;;;;;3.22;0.90;;;;;;;;;;5052127;28;20242;-63
2023/10/14 03:49:44;;;;;;;2.80;1.00;;;;;;;;;;5047171;28;20208;-63
2023/10/14 03:52:12;;;;;;;4.80;1.08;;;;;;;;;;5049234;28;20386;-62
2023/10/14 03:54:42;;;;;;;2.22;0.90;;;;;;;;;;5051258;28;20200;-61
2023/10/14 03:57:14;;;;;;;2.08;0.70;;;;;;;;;;5055897;28;20253;-64
2023/10/14 03:59:46;;;;;;;4.22;1.10;;;;;;;;;;5053499;28;20203;-64
2023/10/14 04:02:19;;;;;;;2.58;0.85;;;;;;;;;;5047882;28;20228;-63
2023/10/14 04:04:47;;;;;;;1.77;0.80;;;;;;;;;;5057398;28;20265;-63
2023/10/14 04:07:15;;;;;;;1.90;1.02;;;;;;;;;;5054491;28;20208;-63
2023/10/14 04:09:51;;;;;;;2.35;1.15;;;;;;;;;;5051068;28;20206;-63
2023/10/14 04:12:36;;;;;;;3.20;1.13;;;;;;;;;;5049569;28;20203;-63
2023/10/14 04:15:15;;;;;;;3.20;0.98;;;;;;;;;;5052070;28;20195;-63
2023/10/14 04:17:48;;;;;;;3.13;1.00;;;;;;;;;;5055315;28;20206;-63
2023/10/14 04:20:21;;;;;;;1.88;0.90;;;;;;;;;;5054152;28;20291;-64
2023/10/14 04:22:52;;;;;;;4.25;0.95;;;;;;;;;;5062775;28;20230;-64
2023/10/14 04:25:21;;;;;;;2.08;1.00;;;;;;;;;;5045532;28;20207;-64
2023/10/14 04:28:18;;;;;;;2.42;0.82;;;;;;;;;;5053296;28;20207;-63
2023/10/14 04:30:45;;;;;;;1.52;0.80;;;;;;;;;;5052234;28;20227;-64
2023/10/14 04:33:24;;;;;;;1.00;0.40;;;;;;;;;;5061155;28;20226;-63
2023/10/14 04:36:36;;;;;;;0.65;0.45;;;;;;;;;;5075778;28;20205;-63
2023/10/14 04:39:12;;;;;;;0.22;0.20;;;;;;;;;;5077110;28;20244;-63
2023/10/14 04:41:46;;;;;;;1.45;0.52;;;;;;;;;;5072205;28;20233;-63
2023/10/14 04:44:13;;;;;;;0.65;0.47;;;;;;;;;;5076822;28;20225;-63
2023/10/14 04:46:46;;;;;;;0.22;0.20;;;;;;;;;;5075166;28;20198;-63
2023/10/14 04:49:17;;;;;;;1.27;0.30;;;;;;;;;;5071057;28;20201;-64
2023/10/14 04:51:47;;;;;;;0.57;0.20;;;;;;;;;;5075134;28;20294;-63
2023/10/14 04:54:19;;;;;;;0.63;0.20;;;;;;;;;;5072685;28;20199;-64
2023/10/14 04:56:46;;;;;;;0.63;0.20;;;;;;;;;;5071834;28;20200;-63
2023/10/14 04:59:19;;;;;;;0.10;0.10;;;;;;;;;;5071878;28;20205;-63
2023/10/14 05:01:48;;;;;;;0.43;0.20;;;;;;;;;;5072448;28;20298;-63
2023/10/14 05:04:19;;;;;;;0.32;0.20;;;;;;;;;;5079714;28;20239;-64
2023/10/14 05:06:48;;;;;;;0.10;0.10;;;;;;;;;;5065530;28;20207;-63
2023/10/14 05:09:29;;;;;;;0.55;0.20;;;;;;;;;;5059880;28;20207;-63
2023/10/14 05:11:56;;;;;;;0.70;0.20;;;;;;;;;;5061313;28;20218;-63
2023/10/14 05:14:34;;;;;;;1.27;0.20;;;;;;;;;;5062354;28;20200;-64
2023/10/14 05:17:05;;;;;;;0.10;0.10;;;;;;;;;;5074253;28;20201;-63
2023/10/14 05:19:41;;;;;;;0.32;0.22;;;;;;;;;;5070107;28;20203;-65
2023/10/14 05:22:18;;;;;;;0.47;0.17;;;;;;;;;;5073155;28;20206;-64
2023/10/14 05:24:49;;;;;;;0.10;0.10;;;;;;;;;;5076591;28;20213;-64
2023/10/14 05:27:17;;;;;;;0.50;0.20;;;;;;;;;;5075685;28;20226;-63
2023/10/14 05:29:50;;;;;;;0.15;0.15;;;;;;;;;;5077583;28;20268;-65
2023/10/14 05:32:18;;;;;;;0.30;0.30;;;;;;;;;;5077614;28;20236;-64
2023/10/14 05:34:47;;;;;;;1.42;0.30;;;;;;;;;;5071122;28;20242;-63
2023/10/14 05:37:14;;;;;;;0.20;0.20;;;;;;;;;;5073290;28;20207;-63
2023/10/14 05:39:41;;;;;;;1.25;0.30;;;;;;;;;;5078413;28;20242;-63
2023/10/14 05:42:15;;;;;;;0.20;0.20;;;;;;;;;;5077198;28;20217;-62
2023/10/14 05:44:47;;;;;;;0.20;0.20;;;;;;;;;;5075863;28;20216;-63
2023/10/14 05:47:14;;;;;;;0.30;0.30;;;;;;;;;;5070399;28;20222;-64
2023/10/14 05:49:41;;;;;;;0.32;0.30;;;;;;;;;;5069694;28;20207;-64
2023/10/14 05:52:11;;;;;;;0.98;0.30;;;;;;;;;;5073180;28;20201;-64
2023/10/14 05:54:38;;;;;;;0.43;0.30;;;;;;;;;;5078710;28;20251;-64
2023/10/14 05:57:08;;;;;;;0.20;0.20;;;;;;;;;;5067008;28;20201;-65
2023/10/14 05:59:36;;;;;;;0.20;0.20;;;;;;;;;;5068541;28;20207;-64
2023/10/14 06:02:06;;;;;;;1.25;0.30;;;;;;;;;;5069044;28;20194;-63
2023/10/14 06:04:39;;;;;;;0.20;0.20;;;;;;;;;;5072710;28;20250;-64
2023/10/14 06:07:06;;;;;;;0.57;0.22;;;;;;;;;;5070837;28;20202;-65
2023/10/14 06:09:35;;;;;;;0.20;0.20;;;;;;;;;;5074866;28;20213;-64
2023/10/14 06:12:05;;;;;;;0.40;0.40;;;;;;;;;;5074604;28;20210;-64
2023/10/14 06:14:33;;;;;;;1.17;0.32;;;;;;;;;;5075715;28;20199;-63
2023/10/14 06:17:01;;;;;;;0.20;0.20;;;;;;;;;;5075038;28;20264;-64
2023/10/14 06:19:30;;;;;;;0.60;0.50;;;;;;;;;;5076155;28;20198;-64
2023/10/14 06:21:59;;;;;;;0.20;0.17;;;;;;;;;;5069776;28;20201;-63
2023/10/14 06:24:26;;;;;;;0.57;0.40;;;;;;;;;;5073832;28;20257;-63
2023/10/14 06:27:07;;;;;;;0.50;0.40;;;;;;;;;;5074715;28;20195;-64
2023/10/14 06:29:34;;;;;;;1.17;0.50;;;;;;;;;;5075201;28;20289;-63
2023/10/14 06:32:03;;;;;;;0.60;0.30;;;;;;;;;;5071409;28;20213;-65
2023/10/14 06:34:31;;;;;;;0.80;0.50;;;;;;;;;;5065279;28;20222;-63
2023/10/14 06:37:01;;;;;;;0.60;0.50;;;;;;;;;;5073863;28;20210;-63
2023/10/14 06:39:28;;;;;;;2.08;0.82;;;;;;;;;;5073972;28;20245;-64
2023/10/14 06:41:58;;;;;;;2.00;1.00;;;;;;;;;;5076862;28;20199;-65
2023/10/14 06:44:27;;;;;;;1.20;0.88;;;;;;;;;;5063791;28;20222;-65
2023/10/14 06:46:56;;;;;;;2.38;1.00;;;;;;;;;;5071329;28;20202;-63
2023/10/14 06:49:23;;;;;;;1.67;1.05;;;;;;;;;;5073297;28;20211;-63
2023/10/14 06:51:51;;;;;;;2.15;1.02;;;;;;;;;;5067593;28;20195;-66
2023/10/14 06:54:25;;;;;;;1.60;1.10;;;;;;;;;;5074501;28;20191;-64
2023/10/14 06:56:53;;;;;;;2.35;1.30;;;;;;;;;;5076589;28;20207;-64
2023/10/14 06:59:21;;;;;;;4.70;1.20;;;;;;;;;;5077469;28;20285;-64
2023/10/14 07:01:49;;;;;;;5.60;1.70;;;;;;;;;;5068712;28;20229;-64
2023/10/14 07:04:16;;;;;;;4.75;1.25;;;;;;;;;;5076452;28;20233;-64
2023/10/14 07:06:47;;;;;;;3.67;1.70;;;;;;;;;;5076565;28;20199;-64
2023/10/14 07:09:18;;;;;;;5.80;1.77;;;;;;;;;;5071706;28;20199;-64
2023/10/14 07:11:45;;;;;;;5.60;1.73;;;;;;;;;;5075231;28;20203;-65
2023/10/14 07:14:12;;;;;;;7.78;2.00;;;;;;;;;;5079632;28;20203;-63
2023/10/14 07:16:41;;;;;;;2.97;1.50;;;;;;;;;;5072926;28;20203;-63
2023/10/14 07:19:08;;;;;;;5.05;1.55;;;;;;;;;;5069345;28;20206;-63
2023/10/14 07:21:35;;;;;;;5.82;1.40;;;;;;;;;;5069430;28;20196;-65
2023/10/14 07:24:06;;;;;;;4.78;1.45;;;;;;;;;;5076937;28;20233;-66
2023/10/14 07:26:36;;;;;;;3.83;1.50;;;;;;;;;;5076167;28;20206;-64
2023/10/14 07:29:05;;;;;;;4.40;1.60;;;;;;;;;;5070797;28;20267;-66
2023/10/14 07:31:32;;;;;;;7.00;1.90;;;;;;;;;;5066405;28;20284;-64
2023/10/14 07:34:08;;;;;;;5.45;1.60;;;;;;;;;;5068770;28;20230;-65
2023/10/14 07:36:35;;;;;;;5.78;1.85;;;;;;;;;;5065519;28;20195;-65
2023/10/14 07:39:27;;;;;;;5.27;2.10;;;;;;;;;;5065256;28;20230;-65
2023/10/14 07:41:52;;;;;;;4.30;1.70;;;;;;;;;;5071416;28;20217;-67
2023/10/14 07:44:20;;;;;;;5.28;1.80;;;;;;;;;;5072083;28;20305;-66
2023/10/14 07:46:47;;;;;;;7.57;1.73;;;;;;;;;;5072902;28;20252;-66
2023/10/14 07:49:15;;;;;;;4.95;1.60;;;;;;;;;;5066614;28;20211;-65
2023/10/14 07:51:43;;;;;;;6.37;1.67;;;;;;;;;;5071484;28;20195;-67
2023/10/14 07:54:12;;;;;;;4.53;1.60;;;;;;;;;;5065145;28;20198;-67
2023/10/14 07:56:42;;;;;;;8.67;1.83;;;;;;;;;;5072542;28;20210;-67
2023/10/14 07:59:10;;;;;;;6.37;2.10;;;;;;;;;;5074081;28;20199;-64
2023/10/14 08:01:38;;;;;;;5.07;1.50;;;;;;;;;;5069307;28;20207;-63
2023/10/14 08:04:08;;;;;;;4.70;1.45;;;;;;;;;;5068310;28;20238;-64
2023/10/14 08:06:40;;;;;;;7.57;1.75;;;;;;;;;;5068947;28;20207;-66
2023/10/14 08:09:15;;;;;;;4.30;1.55;;;;;;;;;;5069867;28;20202;-67
2023/10/14 08:11:42;;;;;;;7.53;1.70;;;;;;;;;;5066012;28;20198;-68
2023/10/14 08:14:10;;;;;;;7.60;1.90;;;;;;;;;;5072280;28;20199;-66
2023/10/14 08:16:37;;;;;;;5.88;1.90;;;;;;;;;;5066925;28;20203;-68
2023/10/14 08:19:06;;;;;;;6.13;1.65;;;;;;;;;;5068483;28;20199;-68
2023/10/14 08:21:36;;;;;;;7.17;1.50;;;;;;;;;;5069657;28;20205;-66
2023/10/14 08:24:06;;;;;;;6.77;1.90;;;;;;;;;;5068087;28;20218;-69
2023/10/14 08:26:34;;;;;;;4.67;1.60;;;;;;;;;;5069781;28;20210;-66
2023/10/14 08:29:01;;;;;;;4.17;1.57;;;;;;;;;;5064822;28;20227;-66
2023/10/14 08:31:28;;;;;;;4.83;1.80;;;;;;;;;;5074288;28;20284;-66
2023/10/14 08:33:55;;;;;;;5.60;1.53;;;;;;;;;;5070854;28;20235;-66
2023/10/14 08:36:26;;;;;;;4.57;1.67;;;;;;;;;;5072643;28;20203;-66
2023/10/14 08:38:53;;;;;;;4.33;1.70;;;;;;;;;;5070434;28;20206;-67
2023/10/14 08:41:22;;;;;;;4.73;1.53;;;;;;;;;;5068357;28;20209;-67
2023/10/14 08:43:50;;;;;;;3.37;1.47;;;;;;;;;;5072268;28;20218;-66
2023/10/14 08:46:18;;;;;;;6.63;1.50;;;;;;;;;;5070591;28;20205;-67
2023/10/14 08:48:50;;;;;;;4.07;1.67;;;;;;;;;;5069231;28;20209;-67
2023/10/14 08:51:18;;;;;;;6.23;2.03;;;;;;;;;;5068320;28;20214;-67
2023/10/14 08:53:48;;;;;;;5.43;1.67;;;;;;;;;;5068571;28;20254;-64
2023/10/14 08:56:15;;;;;;;5.83;1.93;;;;;;;;;;5067300;28;21104;-65
2023/10/14 08:58:43;;;;;;;4.63;1.57;;;;;;;;;;5069576;28;20198;-64
2023/10/14 09:01:14;;;;;;;4.87;1.37;;;;;;;;;;5068291;28;20206;-65
2023/10/14 09:03:45;;;;;;;4.00;1.80;;;;;;;;;;5068369;28;20257;-65
2023/10/14 09:06:12;;;;;;;5.13;1.60;;;;;;;;;;5070987;28;20366;-67
2023/10/14 09:08:40;;;;;;;4.77;1.70;;;;;;;;;;5066103;28;20202;-68
2023/10/14 09:11:07;;;;;;;10.43;2.33;;;;;;;;;;5069192;28;20206;-67
2023/10/14 09:13:36;;;;;;;6.67;1.80;;;;;;;;;;5068753;28;20209;-65
2023/10/14 09:16:09;;;;;;;7.05;1.98;;;;;;;;;;5069801;28;20229;-68
2023/10/14 09:18:37;;;;;;;5.03;2.03;;;;;;;;;;5066676;28;20207;-70
2023/10/14 09:21:06;;;;;;;4.73;1.50;;;;;;;;;;5067294;28;20307;-71
2023/10/14 09:23:33;;;;;;;4.77;1.73;;;;;;;;;;5073268;28;20203;-71
2023/10/14 09:26:01;;;;;;;173.43;12.17;;;;;;;;;;5069118;28;20300;-71
2023/10/14 09:28:31;;;;;;;4.93;1.88;;;;;;;;;;5070797;28;20207;-69
2023/10/14 09:31:00;;;;;;;7.60;1.83;;;;;;;;;;5069910;28;20234;-71
2023/10/14 09:33:29;;;;;;;6.38;1.73;;;;;;;;;;5069596;28;20245;-72
2023/10/14 09:35:58;;;;;;;4.78;1.60;;;;;;;;;;5065056;28;20198;-72
2023/10/14 09:38:26;;;;;;;6.00;1.70;;;;;;;;;;5069293;28;20217;-70
2023/10/14 09:40:54;;;;;;;4.43;1.77;;;;;;;;;;5068427;28;20262;-71
2023/10/14 09:43:23;;;;;;;8.80;1.90;;;;;;;;;;5064167;28;20199;-70
2023/10/14 09:45:51;;;;;;;4.90;1.95;;;;;;;;;;5060849;28;20230;-70
2023/10/14 09:48:19;;;;;;;3.58;1.60;;;;;;;;;;5073780;28;20202;-71
2023/10/14 09:50:47;;;;;;;2.70;1.60;;;;;;;;;;5069187;28;20199;-70
2023/10/14 09:53:15;;;;;;;5.40;1.70;;;;;;;;;;5070193;28;20209;-70
2023/10/14 09:55:44;;;;;;;5.27;1.50;;;;;;;;;;5079264;28;20383;-70
2023/10/14 09:58:14;;;;;;;5.38;1.70;;;;;;;;;;5071422;28;20198;-70
2023/10/14 10:00:41;;;;;;;5.43;1.77;;;;;;;;;;5067973;28;20207;-70
2023/10/14 10:03:10;;;;;;;6.07;1.60;;;;;;;;;;5074415;28;20213;-72
2023/10/14 10:05:40;;;;;;;9.45;2.40;;;;;;;;;;5064377;28;20226;-70
2023/10/14 10:08:19;;;;;;;7.20;1.98;;;;;;;;;;5065138;28;20226;-70
2023/10/14 10:10:49;;;;;;;8.15;1.88;;;;;;;;;;5065948;28;20206;-68
2023/10/14 10:13:17;;;;;;;6.40;2.20;;;;;;;;;;5066574;28;20207;-70
2023/10/14 10:15:44;;;;;;;3.97;1.45;;;;;;;;;;5068659;28;20198;-68
2023/10/14 10:18:15;;;;;;;4.43;1.70;;;;;;;;;;5065448;28;20212;-69
2023/10/14 10:20:49;;;;;;;5.45;1.67;;;;;;;;;;5075556;28;20358;-69
2023/10/14 10:23:17;;;;;;;4.93;1.73;;;;;;;;;;5071612;28;20209;-69
2023/10/14 10:25:49;;;;;;;6.05;1.77;;;;;;;;;;5068659;28;20316;-68
2023/10/14 10:28:35;;;;;;;3.92;1.73;;;;;;;;;;5066212;28;20910;-69
2023/10/14 10:31:07;;;;;;;4.22;1.55;;;;;;;;;;5065686;28;20203;-69
2023/10/14 10:33:49;;;;;;;5.47;1.80;;;;;;;;;;5069420;28;20233;-68
2023/10/14 10:36:21;;;;;;;3.90;1.40;;;;;;;;;;5066905;28;20213;-69
2023/10/14 10:38:53;;;;;;;2.58;1.50;;;;;;;;;;5067504;28;22667;-69
2023/10/14 10:41:24;;;;;;;6.75;1.63;;;;;;;;;;5072042;28;20211;-69
2023/10/14 10:43:51;;;;;;;4.97;1.85;;;;;;;;;;5075381;28;20260;-69
2023/10/14 10:46:30;;;;;;;5.15;1.80;;;;;;;;;;5075791;28;20203;-70
2023/10/14 10:48:58;;;;;;;3.78;1.67;;;;;;;;;;5067478;28;20200;-70
2023/10/14 10:51:25;;;;;;;4.10;1.90;;;;;;;;;;5071609;28;20206;-69
2023/10/14 10:53:55;;;;;;;3.08;1.50;;;;;;;;;;5073558;28;20229;-69
2023/10/14 10:56:22;;;;;;;4.57;1.38;;;;;;;;;;5082129;28;20194;-70
2023/10/14 10:58:50;;;;;;;5.60;1.73;;;;;;;;;;5070836;28;20241;-70
2023/10/14 11:01:19;;;;;;;5.13;1.48;;;;;;;;;;5083415;28;20249;-70
2023/10/14 11:03:49;;;;;;;4.22;1.65;;;;;;;;;;5069835;28;20207;-68
2023/10/14 11:06:19;;;;;;;5.00;1.58;;;;;;;;;;5065503;28;20229;-69
2023/10/14 11:08:48;;;;;;;3.60;1.63;;;;;;;;;;5073113;28;20210;-68
2023/10/14 11:11:16;;;;;;;5.95;1.70;;;;;;;;;;5073386;28;20211;-69
2023/10/14 11:13:43;;;;;;;3.00;1.30;;;;;;;;;;5069119;28;20202;-69
2023/10/14 11:16:12;;;;;;;2.75;1.42;;;;;;;;;;5076413;28;20203;-69
2023/10/14 11:18:49;;;;;;;4.32;1.50;;;;;;;;;;5072911;28;20209;-69
2023/10/14 11:21:17;;;;;;;4.32;1.48;;;;;;;;;;5073814;28;20203;-69
2023/10/14 11:23:45;;;;;;;2.75;1.30;;;;;;;;;;5049685;28;20198;-69
2023/10/14 11:26:12;;;;;;;4.10;1.60;;;;;;;;;;5072052;28;20230;-68
2023/10/14 11:28:46;;;;;;;3.72;1.40;;;;;;;;;;5084531;28;20202;-68
2023/10/14 11:31:13;;;;;;;3.25;1.77;;;;;;;;;;5073132;28;20194;-68
2023/10/14 11:33:40;;;;;;;2.92;1.60;;;;;;;;;;5068771;28;20230;-68
2023/10/14 11:36:08;;;;;;;3.90;1.75;;;;;;;;;;5073648;28;20199;-68
2023/10/14 11:38:43;;;;;;;6.15;2.40;;;;;;;;;;5079752;28;20256;-68
2023/10/14 11:41:12;;;;;;;4.18;1.48;;;;;;;;;;5076214;28;20209;-63
2023/10/14 11:43:44;;;;;;;4.45;1.60;;;;;;;;;;5075276;28;20199;-65
2023/10/14 11:46:11;;;;;;;4.15;1.60;;;;;;;;;;5071035;28;20226;-64
2023/10/14 11:48:38;;;;;;;4.78;1.60;;;;;;;;;;5069314;28;20224;-65
2023/10/14 11:51:11;;;;;;;5.22;1.90;;;;;;;;;;5067728;28;20273;-63
2023/10/14 11:53:38;;;;;;;5.97;1.80;;;;;;;;;;5065974;28;20245;-64
2023/10/14 11:56:06;;;;;;;3.65;1.50;;;;;;;;;;5068650;28;20195;-63
2023/10/14 11:58:35;;;;;;;7.55;1.75;;;;;;;;;;5071970;28;20206;-64
2023/10/14 12:01:04;;;;;;;2.22;1.30;;;;;;;;;;5074647;28;20199;-64
2023/10/14 12:03:31;;;;;;;4.47;1.67;;;;;;;;;;5077540;28;20229;-65
2023/10/14 12:05:59;;;;;;;6.07;1.70;;;;;;;;;;5071844;28;20233;-65
2023/10/14 12:08:27;;;;;;;6.63;2.08;;;;;;;;;;5076397;28;20202;-64
2023/10/14 12:10:54;;;;;;;5.05;1.85;;;;;;;;;;5072859;28;20242;-66
2023/10/14 12:13:21;;;;;;;4.65;1.48;;;;;;;;;;5069005;28;20207;-64
2023/10/14 12:15:49;;;;;;;3.83;1.60;;;;;;;;;;5070810;28;20201;-65
2023/10/14 12:18:20;;;;;;;4.28;1.33;;;;;;;;;;5074611;28;20217;-64
2023/10/14 12:20:48;;;;;;;4.43;1.60;;;;;;;;;;5072866;28;20245;-64
2023/10/14 12:23:15;;;;;;;5.05;1.80;;;;;;;;;;5069400;28;20226;-66
2023/10/14 12:25:43;;;;;;;4.97;1.60;;;;;;;;;;5064540;28;20222;-66
2023/10/14 12:28:10;;;;;;;4.72;1.63;;;;;;;;;;5069160;28;20207;-65
2023/10/14 12:30:41;;;;;;;4.55;1.73;;;;;;;;;;5073558;28;20236;-65
2023/10/14 12:33:08;;;;;;;3.53;1.48;;;;;;;;;;5072195;28;20244;-65
2023/10/14 12:35:39;;;;;;;4.15;1.60;;;;;;;;;;5068260;28;20213;-65
2023/10/14 12:38:11;;;;;;;4.88;1.75;;;;;;;;;;5067506;28;20287;-65
2023/10/14 12:40:39;;;;;;;4.95;1.50;;;;;;;;;;5063178;28;20256;-66
2023/10/14 12:43:06;;;;;;;4.30;1.40;;;;;;;;;;5068735;28;20198;-64
2023/10/14 12:45:34;;;;;;;4.25;1.80;;;;;;;;;;5073928;28;20223;-65
2023/10/14 12:48:09;;;;;;;3.33;1.55;;;;;;;;;;5072294;28;20297;-64
2023/10/14 12:50:40;;;;;;;4.28;1.50;;;;;;;;;;5072415;28;20210;-64
2023/10/14 12:53:08;;;;;;;2.78;1.20;;;;;;;;;;5077574;28;20242;-64
2023/10/14 12:55:36;;;;;;;3.50;1.42;;;;;;;;;;5071849;28;20265;-64
2023/10/14 12:58:04;;;;;;;3.28;1.27;;;;;;;;;;5069771;28;20202;-64
2023/10/14 13:00:31;;;;;;;4.43;1.73;;;;;;;;;;5073905;28;20210;-64
2023/10/14 13:02:58;;;;;;;3.50;1.60;;;;;;;;;;5073654;28;20225;-65
2023/10/14 13:05:26;;;;;;;4.22;1.60;;;;;;;;;;5074816;28;20222;-64
2023/10/14 13:07:55;;;;;;;4.40;1.83;;;;;;;;;;5079471;28;20206;-64
2023/10/14 13:10:23;;;;;;;6.70;1.85;;;;;;;;;;5070613;28;20203;-66
2023/10/14 13:12:51;;;;;;;2.47;1.20;;;;;;;;;;5065507;28;20200;-65
2023/10/14 13:15:25;;;;;;;3.13;1.45;;;;;;;;;;5069368;28;20218;-65
2023/10/14 13:17:56;;;;;;;3.65;1.55;;;;;;;;;;5073243;28;20288;-64
2023/10/14 13:20:26;;;;;;;3.53;1.40;;;;;;;;;;5064620;28;20221;-64
2023/10/14 13:22:54;;;;;;;4.25;1.42;;;;;;;;;;5067752;28;20242;-64
2023/10/14 13:25:22;;;;;;;3.58;1.52;;;;;;;;;;5074727;28;20234;-65
2023/10/14 13:27:51;;;;;;;5.78;2.00;;;;;;;;;;5071497;28;20195;-64
2023/10/14 13:30:22;;;;;;;8.48;1.90;;;;;;;;;;5067099;28;20203;-64
2023/10/14 13:32:52;;;;;;;4.20;1.65;;;;;;;;;;5069741;28;20242;-63
2023/10/14 13:35:19;;;;;;;4.55;1.55;;;;;;;;;;5070339;28;20201;-64
2023/10/14 13:37:47;;;;;;;4.55;1.90;;;;;;;;;;5073515;28;20206;-63
2023/10/14 13:40:20;;;;;;;5.93;1.80;;;;;;;;;;5064640;28;20210;-64
2023/10/14 13:42:48;;;;;;;4.93;2.40;;;;;;;;;;5069913;28;20210;-63
2023/10/14 13:45:22;;;;;;;6.35;1.60;;;;;;;;;;5062790;28;20223;-65
2023/10/14 13:47:50;;;;;;;4.50;1.67;;;;;;;;;;5066219;28;20318;-65
2023/10/14 13:50:21;;;;;;;5.25;1.75;;;;;;;;;;5067427;28;20205;-63
2023/10/14 13:52:54;;;;;;;7.38;1.88;;;;;;;;;;5069709;28;20225;-64
2023/10/14 13:55:22;;;;;;;9.35;2.30;;;;;;;;;;5069618;28;20203;-65
2023/10/14 13:57:50;;;;;;;3.85;1.75;;;;;;;;;;5066353;28;20201;-64
2023/10/14 14:00:35;;;;;;;6.95;2.03;;;;;;;;;;5065450;28;20203;-68
2023/10/14 14:03:03;;;;;;;6.82;1.95;;;;;;;;;;5049580;28;20252;-68
2023/10/14 14:05:31;;;;;;;6.40;1.65;;;;;;;;;;5069417;28;20215;-67
2023/10/14 14:07:58;;;;;;;4.05;1.63;;;;;;;;;;5068555;28;20214;-68
2023/10/14 14:10:26;;;;;;;4.13;1.90;;;;;;;;;;5067768;28;20199;-68
2023/10/14 14:12:54;;;;;;;5.28;1.63;;;;;;;;;;5070439;28;20221;-68
2023/10/14 14:15:21;;;;;;;6.25;1.75;;;;;;;;;;5069768;28;20257;-68
2023/10/14 14:17:49;;;;;;;4.18;1.70;;;;;;;;;;5072667;28;20202;-68
2023/10/14 14:20:17;;;;;;;4.20;1.58;;;;;;;;;;5069106;28;20206;-68
2023/10/14 14:22:44;;;;;;;5.88;1.77;;;;;;;;;;5063098;28;20199;-68
2023/10/14 14:25:13;;;;;;;4.47;1.92;;;;;;;;;;5068419;28;20202;-68
2023/10/14 14:27:45;;;;;;;5.88;1.50;;;;;;;;;;5069374;28;20199;-68
2023/10/14 14:30:14;;;;;;;5.93;1.67;;;;;;;;;;5073608;28;20527;-68
2023/10/14 14:32:43;;;;;;;4.40;1.75;;;;;;;;;;5072430;28;20525;-68
2023/10/14 14:35:11;;;;;;;7.30;1.80;;;;;;;;;;5056378;28;20208;-68
2023/10/14 14:37:38;;;;;;;8.05;1.63;;;;;;;;;;5049803;28;20210;-70
2023/10/14 14:42:53;;;;;;;7.03;1.60;;;;;;;;;;5049656;28;20218;-68
2023/10/14 14:45:22;;;;;;;6.00;1.98;;;;;;;;;;5045369;28;20238;-68
2023/10/14 14:47:49;;;;;;;3.55;1.60;;;;;;;;;;5041533;28;20290;-69
2023/10/14 14:50:18;;;;;;;4.40;1.45;;;;;;;;;;5043943;28;20254;-69
2023/10/14 14:52:47;;;;;;;6.10;1.50;;;;;;;;;;5053438;28;20206;-69
2023/10/14 14:55:15;;;;;;;5.18;1.50;;;;;;;;;;5055995;28;20218;-69
2023/10/14 14:57:44;;;;;;;4.32;1.58;;;;;;;;;;5051147;28;20199;-69
2023/10/14 15:00:26;;;;;;;2.95;1.42;;;;;;;;;;5038420;28;20208;-69
2023/10/14 15:02:55;;;;;;;4.40;1.48;;;;;;;;;;5038013;28;20208;-68